Time,TemperatureF,DewpointF,PressureIn,WindDirection,WindDirectionDegrees,WindSpeedMPH,WindSpeedGustMPH,Humidity,HourlyPrecipIn,Conditions,Clouds,dailyrainin,SoftwareType,DateUTC
2013-07-31 00:03:00,59.7,55.0,30.05,SW,226,0.0,0.0,85,0.00,,,0.00,weatherlink.com 1.10,2013-07-31 04:03:00,
2013-07-31 00:18:00,59.0,55.0,30.05,SW,226,0.0,0.0,86,0.00,,,0.00,weatherlink.com 1.10,2013-07-31 04:18:00,
2013-07-31 00:33:00,58.5,55.0,30.05,NNW,333,0.0,1.0,87,0.00,,,0.00,weatherlink.com 1.10,2013-07-31 04:33:00,
2013-07-31 00:48:00,58.5,55.0,30.05,NE,52,0.0,1.0,87,0.00,,,0.00,weatherlink.com 1.10,2013-07-31 04:48:00,
2013-07-31 01:03:00,58.8,55.0,30.05,NE,44,0.0,0.0,86,0.00,,,0.00,weatherlink.com 1.10,2013-07-31 05:03:00,
2013-07-31 01:18:00,58.7,55.0,30.05,NE,44,0.0,0.0,86,0.00,,,0.00,weatherlink.com 1.10,2013-07-31 05:18:00,
2013-07-31 01:33:00,58.8,55.0,30.05,NNE,13,0.0,1.0,86,0.00,,,0.00,weatherlink.com 1.10,2013-07-31 05:33:00,
2013-07-31 01:48:00,59.0,55.0,30.04,NE,38,0.0,2.0,86,0.00,,,0.00,weatherlink.com 1.10,2013-07-31 05:48:00,
2013-07-31 02:03:00,58.7,55.0,30.04,NW,325,0.0,1.0,86,0.00,,,0.00,weatherlink.com 1.10,2013-07-31 06:03:00,
2013-07-31 02:18:00,58.8,55.0,30.04,NNW,340,0.0,0.0,86,0.00,,,0.00,weatherlink.com 1.10,2013-07-31 06:18:00,
2013-07-31 02:33:00,58.5,54.0,30.05,NNW,341,0.0,0.0,86,0.00,,,0.00,weatherlink.com 1.10,2013-07-31 06:33:00,
2013-07-31 02:48:00,57.9,54.0,30.04,NNW,341,0.0,0.0,87,0.00,,,0.00,weatherlink.com 1.10,2013-07-31 06:48:00,
2013-07-31 03:03:00,57.2,54.0,30.05,NNW,341,0.0,0.0,88,0.00,,,0.00,weatherlink.com 1.10,2013-07-31 07:03:00,
2013-07-31 03:18:00,56.7,54.0,30.05,NNW,341,0.0,0.0,89,0.00,,,0.00,weatherlink.com 1.10,2013-07-31 07:18:00,
2013-07-31 03:33:00,56.3,54.0,30.05,NNW,341,0.0,0.0,90,0.00,,,0.00,weatherlink.com 1.10,2013-07-31 07:33:00,
2013-07-31 03:48:00,56.1,53.0,30.05,NNW,341,0.0,0.0,90,0.00,,,0.00,weatherlink.com 1.10,2013-07-31 07:48:00,
2013-07-31 04:03:00,55.8,53.0,30.05,NNE,19,0.0,0.0,90,0.00,,,0.00,weatherlink.com 1.10,2013-07-31 08:03:00,
2013-07-31 04:18:00,55.7,53.0,30.05,NNE,19,0.0,0.0,90,0.00,,,0.00,weatherlink.com 1.10,2013-07-31 08:18:00,
2013-07-31 04:34:00,55.9,53.0,30.06,ENE,67,0.0,0.0,90,0.00,,,0.00,weatherlink.com 1.10,2013-07-31 08:34:00,
2013-07-31 04:49:00,56.0,53.0,30.06,NE,37,0.0,4.0,90,0.00,,,0.00,weatherlink.com 1.10,2013-07-31 08:49:00,
2013-07-31 05:04:00,55.8,53.0,30.06,NE,37,0.0,0.0,90,0.00,,,0.00,weatherlink.com 1.10,2013-07-31 09:04:00,
2013-07-31 05:19:00,55.4,53.0,30.07,NE,37,0.0,0.0,90,0.00,,,0.00,weatherlink.com 1.10,2013-07-31 09:19:00,
2013-07-31 05:34:00,55.1,53.0,30.07,NE,37,0.0,0.0,91,0.00,,,0.00,weatherlink.com 1.10,2013-07-31 09:34:00,
2013-07-31 05:49:00,54.9,52.0,30.08,NE,37,0.0,0.0,91,0.00,,,0.00,weatherlink.com 1.10,2013-07-31 09:49:00,
2013-07-31 06:04:00,54.7,52.0,30.08,NE,37,0.0,0.0,91,0.00,,,0.00,weatherlink.com 1.10,2013-07-31 10:04:00,
2013-07-31 06:19:00,54.5,52.0,30.08,NE,37,0.0,0.0,91,0.00,,,0.00,weatherlink.com 1.10,2013-07-31 10:19:00,
2013-07-31 06:34:00,55.1,53.0,30.09,NE,37,0.0,0.0,91,0.00,,,0.00,weatherlink.com 1.10,2013-07-31 10:34:00,
2013-07-31 06:49:00,55.7,53.0,30.10,NE,37,0.0,0.0,91,0.00,,,0.00,weatherlink.com 1.10,2013-07-31 10:49:00,
2013-07-31 07:04:00,56.0,54.0,30.10,NE,37,0.0,0.0,91,0.00,,,0.00,weatherlink.com 1.10,2013-07-31 11:04:00,
2013-07-31 07:19:00,56.9,54.0,30.10,NE,37,0.0,0.0,91,0.00,,,0.00,weatherlink.com 1.10,2013-07-31 11:19:00,
2013-07-31 07:34:00,57.8,55.0,30.10,NE,37,0.0,0.0,91,0.00,,,0.00,weatherlink.com 1.10,2013-07-31 11:34:00,
2013-07-31 07:49:00,58.9,56.0,30.10,NE,37,0.0,0.0,90,0.00,,,0.00,weatherlink.com 1.10,2013-07-31 11:49:00,
2013-07-31 08:04:00,60.5,57.0,30.09,NE,37,0.0,0.0,88,0.00,,,0.00,weatherlink.com 1.10,2013-07-31 12:04:00,
2013-07-31 08:19:00,62.1,57.0,30.10,SSE,148,0.0,1.0,83,0.00,,,0.00,weatherlink.com 1.10,2013-07-31 12:19:00,
2013-07-31 08:34:00,63.6,57.0,30.09,SSE,148,0.0,0.0,79,0.00,,,0.00,weatherlink.com 1.10,2013-07-31 12:34:00,
2013-07-31 08:49:00,64.9,59.0,30.09,NNE,22,0.0,0.0,80,0.00,,,0.00,weatherlink.com 1.10,2013-07-31 12:49:00,
2013-07-31 09:04:00,65.6,59.0,30.09,West,271,0.0,0.0,78,0.00,,,0.00,weatherlink.com 1.10,2013-07-31 13:04:00,
2013-07-31 09:19:00,66.7,58.0,30.10,West,271,0.0,0.0,73,0.00,,,0.00,weatherlink.com 1.10,2013-07-31 13:19:00,
2013-07-31 09:34:00,67.9,58.0,30.09,SW,215,0.0,1.0,71,0.00,,,0.00,weatherlink.com 1.10,2013-07-31 13:34:00,
2013-07-31 09:49:00,68.6,57.0,30.09,NW,307,0.0,0.0,67,0.00,,,0.00,weatherlink.com 1.10,2013-07-31 13:49:00,
2013-07-31 10:04:00,69.4,56.0,30.09,West,273,0.0,1.0,63,0.00,,,0.00,weatherlink.com 1.10,2013-07-31 14:04:00,
2013-07-31 10:19:00,70.0,57.0,30.08,WNW,296,0.0,0.0,63,0.00,,,0.00,weatherlink.com 1.10,2013-07-31 14:19:00,
2013-07-31 10:35:00,70.8,57.0,30.08,WSW,248,0.0,0.0,61,0.00,,,0.00,weatherlink.com 1.10,2013-07-31 14:35:00,
2013-07-31 10:50:00,71.7,58.0,30.07,WSW,238,0.0,2.0,62,0.00,,,0.00,weatherlink.com 1.10,2013-07-31 14:50:00,
2013-07-31 11:05:00,71.7,58.0,30.07,North,5,0.0,2.0,62,0.00,,,0.00,weatherlink.com 1.10,2013-07-31 15:05:00,
2013-07-31 11:20:00,72.6,58.0,30.07,SSW,207,1.0,3.0,61,0.00,,,0.00,weatherlink.com 1.10,2013-07-31 15:20:00,
2013-07-31 11:35:00,73.2,58.0,30.06,WNW,290,0.0,4.0,59,0.00,,,0.00,weatherlink.com 1.10,2013-07-31 15:35:00,
2013-07-31 11:50:00,73.2,57.0,30.06,West,274,0.0,1.0,57,0.00,,,0.00,weatherlink.com 1.10,2013-07-31 15:50:00,
2013-07-31 12:05:00,72.8,56.0,30.06,NNW,336,0.0,0.0,56,0.00,,,0.00,weatherlink.com 1.10,2013-07-31 16:05:00,
2013-07-31 12:20:00,74.5,55.0,30.05,North,355,0.0,4.0,51,0.00,,,0.00,weatherlink.com 1.10,2013-07-31 16:20:00,
2013-07-31 12:35:00,76.0,56.0,30.05,WNW,284,0.0,6.0,50,0.00,,,0.00,weatherlink.com 1.10,2013-07-31 16:35:00,
2013-07-31 12:50:00,77.0,53.0,30.04,SSW,211,1.0,5.0,43,0.00,,,0.00,weatherlink.com 1.10,2013-07-31 16:50:00,
2013-07-31 13:05:00,77.4,53.0,30.04,South,186,0.0,6.0,43,0.00,,,0.00,weatherlink.com 1.10,2013-07-31 17:05:00,
2013-07-31 13:20:00,78.5,53.0,30.04,South,180,1.0,3.0,42,0.00,,,0.00,weatherlink.com 1.10,2013-07-31 17:20:00,
2013-07-31 13:35:00,78.4,55.0,30.04,SW,218,0.0,5.0,45,0.00,,,0.00,weatherlink.com 1.10,2013-07-31 17:35:00,
2013-07-31 13:50:00,78.9,54.0,30.04,South,189,0.0,4.0,42,0.00,,,0.00,weatherlink.com 1.10,2013-07-31 17:50:00,
2013-07-31 14:05:00,79.0,56.0,30.03,SSW,210,2.0,5.0,46,0.00,,,0.00,weatherlink.com 1.10,2013-07-31 18:05:00,
2013-07-31 14:20:00,79.8,55.0,30.03,SSW,212,0.0,4.0,43,0.00,,,0.00,weatherlink.com 1.10,2013-07-31 18:20:00,
2013-07-31 14:35:00,79.5,56.0,30.02,SSW,203,1.0,5.0,45,0.00,,,0.00,weatherlink.com 1.10,2013-07-31 18:35:00,
2013-07-31 14:50:00,80.2,56.0,30.02,WSW,248,0.0,3.0,44,0.00,,,0.00,weatherlink.com 1.10,2013-07-31 18:50:00,
2013-07-31 15:05:00,80.0,56.0,30.02,SSW,195,4.0,4.0,44,0.00,,,0.00,weatherlink.com 1.10,2013-07-31 19:05:00,
2013-07-31 15:20:00,80.2,54.0,30.02,NW,314,0.0,10.0,41,0.00,,,0.00,weatherlink.com 1.10,2013-07-31 19:20:00,
2013-07-31 15:35:00,80.4,57.0,30.01,WNW,301,1.0,3.0,45,0.00,,,0.00,weatherlink.com 1.10,2013-07-31 19:35:00,
2013-07-31 15:50:00,80.4,57.0,30.01,SW,234,2.0,6.0,45,0.00,,,0.00,weatherlink.com 1.10,2013-07-31 19:50:00,
2013-07-31 16:05:00,79.7,56.0,30.01,SSW,208,0.0,4.0,45,0.00,,,0.00,weatherlink.com 1.10,2013-07-31 20:05:00,
2013-07-31 16:20:00,80.0,57.0,30.00,SSW,205,0.0,3.0,45,0.00,,,0.00,weatherlink.com 1.10,2013-07-31 20:20:00,
2013-07-31 16:35:00,80.3,58.0,30.00,SW,225,0.0,3.0,47,0.00,,,0.00,weatherlink.com 1.10,2013-07-31 20:35:00,
2013-07-31 16:50:00,80.8,57.0,30.00,SW,219,0.0,5.0,45,0.00,,,0.00,weatherlink.com 1.10,2013-07-31 20:50:00,
2013-07-31 17:05:00,79.6,56.0,30.00,SW,222,0.0,3.0,45,0.00,,,0.00,weatherlink.com 1.10,2013-07-31 21:05:00,
2013-07-31 17:20:00,79.6,57.0,30.00,SW,218,0.0,2.0,46,0.00,,,0.00,weatherlink.com 1.10,2013-07-31 21:20:00,
2013-07-31 17:35:00,79.3,57.0,29.99,West,259,0.0,3.0,47,0.00,,,0.00,weatherlink.com 1.10,2013-07-31 21:35:00,
2013-07-31 17:50:00,78.9,58.0,30.00,SW,234,0.0,3.0,49,0.00,,,0.00,weatherlink.com 1.10,2013-07-31 21:50:00,
2013-07-31 18:05:00,78.4,56.0,30.00,SW,231,0.0,2.0,47,0.00,,,0.00,weatherlink.com 1.10,2013-07-31 22:05:00,
2013-07-31 18:20:00,78.5,58.0,30.00,SW,230,0.0,0.0,50,0.00,,,0.00,weatherlink.com 1.10,2013-07-31 22:20:00,
2013-07-31 18:35:00,78.1,57.0,30.00,SSW,202,0.0,0.0,48,0.00,,,0.00,weatherlink.com 1.10,2013-07-31 22:35:00,
2013-07-31 18:50:00,76.9,57.0,30.00,SSW,205,0.0,2.0,51,0.00,,,0.00,weatherlink.com 1.10,2013-07-31 22:50:00,
2013-07-31 19:05:00,75.5,59.0,30.00,SSW,205,0.0,0.0,57,0.00,,,0.00,weatherlink.com 1.10,2013-07-31 23:05:00,
2013-07-31 19:20:00,74.2,60.0,30.00,SSW,205,0.0,0.0,62,0.00,,,0.00,weatherlink.com 1.10,2013-07-31 23:20:00,
2013-07-31 19:35:00,72.6,61.0,29.99,SSW,205,0.0,0.0,68,0.00,,,0.00,weatherlink.com 1.10,2013-07-31 23:35:00,
2013-07-31 19:50:00,71.3,61.0,29.99,SSW,205,0.0,0.0,69,0.00,,,0.00,weatherlink.com 1.10,2013-07-31 23:50:00,
2013-07-31 20:05:00,70.1,61.0,29.99,SSW,205,0.0,0.0,72,0.00,,,0.00,weatherlink.com 1.10,2013-08-01 00:05:00,
2013-07-31 20:20:00,69.2,61.0,30.00,SSW,205,0.0,0.0,76,0.00,,,0.00,weatherlink.com 1.10,2013-08-01 00:20:00,
2013-07-31 20:35:00,68.2,60.0,30.00,SSW,205,0.0,0.0,76,0.00,,,0.00,weatherlink.com 1.10,2013-08-01 00:35:00,
2013-07-31 20:50:00,67.6,60.0,30.00,SSW,205,0.0,0.0,76,0.00,,,0.00,weatherlink.com 1.10,2013-08-01 00:50:00,
2013-07-31 21:05:00,67.5,60.0,30.00,SSW,205,0.0,0.0,77,0.00,,,0.00,weatherlink.com 1.10,2013-08-01 01:05:00,
2013-07-31 21:20:00,67.0,60.0,30.01,SSW,205,0.0,0.0,78,0.00,,,0.00,weatherlink.com 1.10,2013-08-01 01:20:00,
2013-07-31 21:35:00,66.2,60.0,30.01,SSW,205,0.0,0.0,79,0.00,,,0.00,weatherlink.com 1.10,2013-08-01 01:35:00,
2013-07-31 21:51:00,65.6,60.0,30.01,SSW,205,0.0,0.0,81,0.00,,,0.00,weatherlink.com 1.10,2013-08-01 01:51:00,
2013-07-31 22:06:00,64.8,59.0,30.01,SSW,205,0.0,0.0,82,0.00,,,0.00,weatherlink.com 1.10,2013-08-01 02:06:00,
2013-07-31 22:21:00,63.9,59.0,30.01,SSW,205,0.0,0.0,83,0.00,,,0.00,weatherlink.com 1.10,2013-08-01 02:21:00,
2013-07-31 22:36:00,63.5,59.0,30.01,SSW,205,0.0,0.0,84,0.00,,,0.00,weatherlink.com 1.10,2013-08-01 02:36:00,
2013-07-31 22:51:00,63.2,59.0,30.01,SSW,205,0.0,0.0,85,0.00,,,0.00,weatherlink.com 1.10,2013-08-01 02:51:00,
2013-07-31 23:07:00,62.7,59.0,30.01,SSW,205,0.0,0.0,86,0.00,,,0.00,weatherlink.com 1.10,2013-08-01 03:07:00,
2013-07-31 23:21:00,62.4,58.0,30.02,SSW,205,0.0,0.0,86,0.00,,,0.00,weatherlink.com 1.10,2013-08-01 03:21:00,
2013-07-31 23:36:00,62.1,58.0,30.02,SSW,205,0.0,0.0,87,0.00,,,0.00,weatherlink.com 1.10,2013-08-01 03:36:00,
2013-07-31 23:51:00,61.8,58.0,30.01,SSW,205,0.0,0.0,88,0.00,,,0.00,weatherlink.com 1.10,2013-08-01 03:51:00,